createdAt,value
2022-09-27T00:04:01.451Z,1670
2022-09-27T00:09:19.906Z,1680
2022-09-27T00:14:38.400Z,1679
2022-09-27T00:19:57.215Z,1687
2022-09-27T00:25:15.381Z,1680
2022-09-27T00:30:33.301Z,1675
2022-09-27T00:35:51.831Z,1665
2022-09-27T00:41:10.349Z,1671
2022-09-27T00:46:28.986Z,1684
2022-09-27T00:51:47.398Z,1679
2022-09-27T00:57:05.296Z,1687
2022-09-27T01:02:24.129Z,1694
2022-09-27T01:07:42.575Z,1685
2022-09-27T01:13:01.344Z,1686
2022-09-27T01:18:19.850Z,1691
2022-09-27T01:23:38.312Z,1684
2022-09-27T01:28:57.057Z,1684
2022-09-27T01:34:15.547Z,1678
2022-09-27T01:39:34.118Z,1685
2022-09-27T01:44:52.125Z,1689
2022-09-27T01:50:10.630Z,1682
2022-09-27T01:55:29.403Z,1678
2022-09-27T02:00:47.318Z,1679
2022-09-27T02:06:05.523Z,1688
2022-09-27T02:11:23.759Z,1678
2022-09-27T02:16:42.231Z,1670
2022-09-27T02:22:00.735Z,1679
2022-09-27T02:27:19.537Z,1671
2022-09-27T02:32:37.970Z,1676
2022-09-27T02:37:56.741Z,1671
2022-09-27T02:43:15.539Z,1662
2022-09-27T02:48:34.328Z,1663
2022-09-27T02:53:52.813Z,1656
2022-09-27T02:59:11.024Z,1653
2022-09-27T03:04:29.502Z,1658
2022-09-27T03:09:47.988Z,1655
2022-09-27T03:15:06.512Z,1650
2022-09-27T03:20:24.965Z,1645
2022-09-27T03:25:43.186Z,1645
2022-09-27T03:31:01.477Z,1646
2022-09-27T03:36:19.749Z,1645
2022-09-27T03:41:37.956Z,1649
2022-09-27T03:46:56.478Z,1643
2022-09-27T03:52:14.949Z,1641
2022-09-27T03:57:33.443Z,1644
2022-09-27T04:02:52.294Z,1656
2022-09-27T04:08:10.590Z,1661
2022-09-27T04:13:29.051Z,1672
2022-09-27T04:18:47.271Z,1673
2022-09-27T04:24:05.482Z,1675
2022-09-27T04:29:23.657Z,1621
2022-09-27T04:34:45.702Z,1039
2022-09-27T04:40:04.186Z,1003
2022-09-27T04:45:22.953Z,963
2022-09-27T04:50:40.905Z,919
2022-09-27T04:55:59.085Z,1106
2022-09-27T05:01:17.311Z,1253
2022-09-27T05:06:35.896Z,1360
2022-09-27T05:11:54.379Z,1398
2022-09-27T05:17:12.571Z,1438
2022-09-27T05:22:30.599Z,1445
2022-09-27T05:27:49.380Z,1443
2022-09-27T05:33:08.133Z,1447
2022-09-27T05:38:10.719Z,1444
2022-09-27T05:43:29.185Z,1508
2022-09-27T05:48:47.953Z,1469
2022-09-27T05:54:06.740Z,1443
2022-09-27T05:59:25.491Z,1432
2022-09-27T06:04:44.270Z,1438
2022-09-27T06:10:02.766Z,1442
2022-09-27T06:15:20.942Z,1435
2022-09-27T06:20:39.416Z,1421
2022-09-27T06:25:41.763Z,1418
2022-09-27T06:30:59.714Z,1443
2022-09-27T06:36:18.081Z,1439
2022-09-27T06:41:36.852Z,1446
2022-09-27T06:46:55.322Z,1475
2022-09-27T06:51:58.459Z,1473
2022-09-27T06:57:16.966Z,1502
2022-09-27T07:02:35.168Z,980
2022-09-27T07:07:53.349Z,909
2022-09-27T07:13:11.822Z,845
2022-09-27T07:18:30.005Z,769
2022-09-27T07:23:48.767Z,749
2022-09-27T07:29:07.611Z,694
2022-09-27T07:34:26.498Z,807
2022-09-27T07:39:44.690Z,820
2022-09-27T07:45:06.162Z,716
2022-09-27T07:50:27.328Z,662
2022-09-27T07:55:45.803Z,626
2022-09-27T08:01:04.088Z,597
2022-09-27T08:06:22.585Z,561
2022-09-27T08:11:40.785Z,560
2022-09-27T08:16:59.590Z,629
2022-09-27T08:22:18.101Z,675
2022-09-27T08:27:36.543Z,724
2022-09-27T08:32:54.808Z,781
2022-09-27T08:38:13.566Z,836
2022-09-27T08:43:32.014Z,881
2022-09-27T08:48:50.546Z,910
2022-09-27T08:54:10.170Z,944
2022-09-27T08:59:28.413Z,957
2022-09-27T09:04:47.230Z,973
2022-09-27T09:10:05.960Z,981
2022-09-27T09:15:24.173Z,984
2022-09-27T09:20:42.954Z,1004
2022-09-27T09:26:01.147Z,1002
2022-09-27T09:31:19.706Z,1008
2022-09-27T09:36:38.217Z,1012
2022-09-27T09:41:56.112Z,1016
2022-09-27T09:47:14.334Z,1021
2022-09-27T09:52:32.869Z,1026
2022-09-27T09:57:51.042Z,1037
2022-09-27T10:03:09.535Z,1037
2022-09-27T10:08:28.048Z,1040
2022-09-27T10:13:46.231Z,1035
2022-09-27T10:19:05.006Z,1044
2022-09-27T10:24:23.832Z,1048
2022-09-27T10:29:43.647Z,1058
2022-09-27T10:35:02.445Z,1076
2022-09-27T10:40:21.410Z,1074
2022-09-27T10:45:40.616Z,1077
2022-09-27T10:50:59.579Z,1080
2022-09-27T10:56:18.350Z,1087
2022-09-27T11:01:36.814Z,1092
2022-09-27T11:06:55.584Z,1093
2022-09-27T11:12:14.405Z,1089
2022-09-27T11:17:32.850Z,1080
2022-09-27T11:22:50.786Z,1082
2022-09-27T11:28:09.401Z,1088
2022-09-27T11:33:27.373Z,1077
2022-09-27T11:38:52.995Z,1063
2022-09-27T11:44:14.823Z,1053
2022-09-27T11:49:32.997Z,1040
2022-09-27T11:54:51.510Z,1025
2022-09-27T12:00:09.737Z,1005
2022-09-27T12:05:28.199Z,1002
2022-09-27T12:10:46.974Z,1003
2022-09-27T12:16:05.529Z,1005
2022-09-27T12:21:23.718Z,1005
2022-09-27T12:26:42.492Z,1000
2022-09-27T12:32:01.359Z,999
2022-09-27T12:37:19.827Z,996
2022-09-27T12:42:38.592Z,1005
2022-09-27T12:47:57.176Z,1006
2022-09-27T12:53:16.008Z,1010
2022-09-27T12:58:34.782Z,1012
2022-09-27T13:03:53.018Z,1001
2022-09-27T13:09:11.643Z,1035
2022-09-27T13:14:30.308Z,1029
2022-09-27T13:19:49.098Z,1027
2022-09-27T13:25:07.579Z,1017
2022-09-27T13:30:26.104Z,967
2022-09-27T13:35:44.322Z,978
2022-09-27T13:41:02.872Z,1028
2022-09-27T13:46:21.200Z,1043
2022-09-27T13:51:39.603Z,1059
2022-09-27T13:56:57.523Z,1022
2022-09-27T14:02:15.813Z,984
2022-09-27T14:07:33.787Z,949
2022-09-27T14:12:51.963Z,898
2022-09-27T14:18:10.446Z,827
2022-09-27T14:23:29.230Z,762
2022-09-27T14:28:47.418Z,680
2022-09-27T14:34:05.897Z,597
2022-09-27T14:39:24.404Z,565
2022-09-27T14:44:42.617Z,556
2022-09-27T14:50:01.390Z,564
2022-09-27T14:55:20.195Z,589
2022-09-27T15:00:38.649Z,635
2022-09-27T15:05:56.828Z,656
2022-09-27T15:11:14.805Z,670
2022-09-27T15:16:33.016Z,692
2022-09-27T15:21:51.212Z,683
2022-09-27T15:27:09.436Z,676
2022-09-27T15:32:27.316Z,673
